Stations météo

Publicité
Chatillon/Seine, France (7276): Température de l'air & dewpoint: 14.04.2019 14:00:00 - 20.04.2019 14:00:00 (CEST)Chatillon/Seine, France (7276): Vitesse du vent & gusts: 14.04.2019 14:00:00 - 20.04.2019 14:00:00 (CEST)Chatillon/Seine, France (7276): Direction du vent: 14.04.2019 14:00:00 - 20.04.2019 14:00:00 (CEST)Chatillon/Seine, France (7276): Ensoleillement: 14.04.2019 14:00:00 - 20.04.2019 14:00:00 (CEST)Chatillon/Seine, France (7276): Quantités de précipitations: 14.04.2019 14:00:00 - 20.04.2019 14:00:00 (CEST)
Date & Time tt [°C] td [°C] ff [km/h] ff [knt] fx [km/h] fx [knt] dd sd [min] rr [mm]
20.04.2019 14:00:00 - - - - - - - - -
20.04.2019 13:00:00 22,6 8,3 15 8 28 15 NE 60 0,0
20.04.2019 12:00:00 19,8 8,5 9 5 18 10 NNE 60 0,0
20.04.2019 11:00:00 17,4 9,6 11 6 18 10 N 60 0,0
20.04.2019 10:00:00 15,3 9,0 8 4 15 8 NE 60 0,0
20.04.2019 09:00:00 11,3 10,7 0 0 4 2 N 60 0,0
20.04.2019 08:00:00 7,5 7,5 0 0 4 2 N 54 -
20.04.2019 07:00:00 5,5 5,5 0 0 5 3 N 0 0,0
20.04.2019 06:00:00 6,4 6,1 4 2 11 6 SSE 0 0,0
20.04.2019 05:00:00 6,8 6,2 8 4 11 6 E 0 0,0
20.04.2019 04:00:00 8,0 6,9 5 3 9 5 ESE 0 0,0
20.04.2019 03:00:00 8,5 6,3 5 3 9 5 E 0 0,0
20.04.2019 02:00:00 10,4 7,5 5 3 9 5 E 0 -
20.04.2019 01:00:00 12,2 7,1 5 3 11 6 SSE 0 0,0
20.04.2019 00:00:00 12,6 7,1 4 2 13 7 ESE 0 0,0
19.04.2019 23:00:00 14,1 6,9 9 5 15 8 NE 0 0,0
19.04.2019 22:00:00 14,4 5,5 4 2 15 8 SE 0 0,0
19.04.2019 21:00:00 15,3 5,5 11 6 26 14 SE 12 0,0
19.04.2019 20:00:00 19,2 5,3 18 10 39 21 SE 60 -
19.04.2019 19:00:00 20,2 6,5 26 14 41 22 ESE 60 0,0
19.04.2019 18:00:00 24,0 5,8 8 4 16 9 E 60 0,0
19.04.2019 17:00:00 24,5 5,3 9 5 24 13 ESE 60 0,0
19.04.2019 16:00:00 24,1 5,0 16 9 28 15 SSW 60 0,0
19.04.2019 15:00:00 24,2 7,3 11 6 29 16 S 60 0,0
19.04.2019 14:00:00 23,5 4,4 16 9 31 17 SSW 60 -
19.04.2019 13:00:00 22,1 4,2 13 7 24 13 SW 48 0,0
19.04.2019 12:00:00 21,2 3,8 9 5 18 10 SW 60 0,0
19.04.2019 11:00:00 19,9 3,6 5 3 13 7 SSW 60 0,0
19.04.2019 10:00:00 15,0 10,2 2 1 5 3 NNW 60 0,0
19.04.2019 09:00:00 11,3 10,0 0 0 8 4 N 48 0,0
19.04.2019 08:00:00 6,3 6,3 5 3 11 6 SSW 48 -
19.04.2019 07:00:00 3,8 3,8 8 4 9 5 S 0 0,0
19.04.2019 06:00:00 4,5 4,5 0 0 4 2 N 0 0,0
19.04.2019 05:00:00 5,0 5,0 0 0 4 2 N 0 0,0
19.04.2019 04:00:00 5,7 5,0 0 0 4 2 N 0 0,0
19.04.2019 03:00:00 6,9 5,5 2 1 4 2 NW 0 0,0
19.04.2019 02:00:00 7,6 5,4 0 0 8 4 N 0 -
19.04.2019 01:00:00 8,7 4,7 4 2 5 3 S 0 0,0
19.04.2019 00:00:00 10,5 5,3 2 1 9 5 WNW 0 0,0
18.04.2019 23:00:00 11,6 5,2 8 4 9 5 SW 0 0,0
18.04.2019 22:00:00 12,1 4,3 4 2 8 4 ESE 0 0,0
18.04.2019 21:00:00 14,4 4,9 5 3 13 7 ESE 12 0,0
18.04.2019 20:00:00 17,6 5,5 9 5 22 12 SSE 60 -
18.04.2019 19:00:00 20,5 6,8 11 6 22 12 SSE 60 0,0
18.04.2019 18:00:00 21,5 5,4 13 7 26 14 ESE 60 0,0
18.04.2019 17:00:00 22,4 7,4 9 5 29 16 ESE 60 0,0
18.04.2019 16:00:00 22,9 6,6 13 7 39 21 SSE 60 0,0
18.04.2019 15:00:00 23,2 7,7 11 6 39 21 SE 60 0,0
18.04.2019 14:00:00 22,9 6,2 16 9 37 20 SSE 60 -
18.04.2019 13:00:00 21,9 8,0 13 7 29 16 ESE 60 0,0
18.04.2019 12:00:00 20,1 7,8 21 11 29 16 ESE 60 0,0
18.04.2019 11:00:00 19,2 8,8 9 5 18 10 E 60 0,0
18.04.2019 10:00:00 16,9 11,0 8 4 13 7 E 60 0,0
18.04.2019 09:00:00 12,9 11,3 8 4 11 6 NE 60 0,0
18.04.2019 08:00:00 9,2 9,2 5 3 11 6 ENE 48 -
18.04.2019 07:00:00 8,2 8,2 8 4 13 7 E 0 0,0
18.04.2019 06:00:00 8,5 8,5 8 4 11 6 NE 0 0,0
18.04.2019 05:00:00 7,7 7,7 5 3 8 4 ENE 0 0,0
18.04.2019 04:00:00 7,3 7,3 4 2 8 4 NE 0 0,0
18.04.2019 03:00:00 7,0 7,0 4 2 8 4 NE 0 0,0
18.04.2019 02:00:00 7,4 7,1 4 2 8 4 NE 0 -
18.04.2019 01:00:00 7,6 6,1 0 0 5 3 N 0 0,0
18.04.2019 00:00:00 8,3 5,6 2 1 8 4 NNE 0 0,0
17.04.2019 23:00:00 9,2 5,4 4 2 5 3 E 0 0,0
17.04.2019 22:00:00 9,4 5,2 4 2 9 5 ESE 0 0,0
17.04.2019 21:00:00 11,6 5,2 8 4 13 7 ESE 12 0,0
17.04.2019 20:00:00 15,0 5,2 11 6 22 12 ESE 60 -
17.04.2019 19:00:00 17,4 6,3 8 4 18 10 E 60 0,0
17.04.2019 18:00:00 17,4 6,6 9 5 21 11 ESE 36 0,0
17.04.2019 17:00:00 17,6 6,8 9 5 24 13 NE 54 0,0
17.04.2019 16:00:00 17,7 6,8 11 6 22 12 ENE 24 0,0
17.04.2019 15:00:00 18,4 8,6 15 8 26 14 SE 36 0,0
17.04.2019 14:00:00 16,0 8,2 4 2 15 8 ESE 6 -
17.04.2019 13:00:00 14,9 8,8 2 1 11 6 NW 12 0,0
17.04.2019 12:00:00 13,9 10,5 4 2 8 4 NNE 18 0,0
17.04.2019 11:00:00 12,6 12,6 4 2 8 4 NE 18 0,0
17.04.2019 10:00:00 11,1 11,1 0 0 5 3 N 30 0,0
17.04.2019 09:00:00 9,4 9,4 2 1 5 3 ENE 0 0,0
17.04.2019 08:00:00 7,9 7,9 2 1 8 4 ESE 0 -
17.04.2019 07:00:00 7,7 7,7 2 1 9 5 SE 0 0,0
17.04.2019 06:00:00 7,3 7,3 2 1 8 4 SSW 0 0,0
17.04.2019 05:00:00 5,7 5,7 4 2 9 5 E 0 0,0
17.04.2019 04:00:00 5,7 5,7 4 2 8 4 SSE 0 0,0
17.04.2019 03:00:00 7,7 7,7 8 4 11 6 SSW 0 0,0
17.04.2019 02:00:00 8,2 8,2 9 5 13 7 SSW 0 -
17.04.2019 01:00:00 8,1 8,1 9 5 9 5 S 0 0,0
17.04.2019 00:00:00 9,6 9,6 8 4 9 5 SSW 0 0,0
16.04.2019 23:00:00 9,9 9,9 5 3 13 7 SW 0 0,0
16.04.2019 22:00:00 10,2 10,2 9 5 15 8 WSW 0 0,0
16.04.2019 21:00:00 10,5 10,5 5 3 13 7 W 0 0,0
16.04.2019 20:00:00 10,9 10,9 8 4 13 7 W 0 -
16.04.2019 19:00:00 10,8 10,8 8 4 24 13 WSW 0 1,0
16.04.2019 18:00:00 11,6 11,6 11 6 18 10 SSW 0 0,2
16.04.2019 17:00:00 11,1 11,1 8 4 18 10 SSW 0 0,0
16.04.2019 16:00:00 10,6 10,6 15 8 28 15 SSW 0 0,0
16.04.2019 15:00:00 11,0 10,4 18 10 29 16 SSW 0 0,2
16.04.2019 14:00:00 10,8 10,5 16 9 31 17 S 0 -
16.04.2019 13:00:00 10,5 10,2 21 11 35 19 S 0 0,4
16.04.2019 12:00:00 10,0 9,1 22 12 41 22 S 0 0,2
16.04.2019 11:00:00 9,9 8,7 24 13 41 22 S 0 0,2
16.04.2019 10:00:00 9,1 9,1 18 10 26 14 S 0 0,8
16.04.2019 09:00:00 8,7 8,2 13 7 22 12 S 0 0,4
16.04.2019 08:00:00 8,6 5,9 9 5 13 7 S 0 -
16.04.2019 07:00:00 9,1 3,7 5 3 16 9 W 0 0,0
16.04.2019 06:00:00 7,5 3,9 8 4 16 9 SSE 0 0,0
16.04.2019 05:00:00 7,3 3,0 8 4 13 7 SSE 0 0,0
16.04.2019 04:00:00 9,2 3,2 11 6 29 16 S 0 0,0
16.04.2019 03:00:00 9,7 3,4 15 8 31 17 S 0 0,0
16.04.2019 02:00:00 8,7 2,7 15 8 26 14 SE 0 -
16.04.2019 01:00:00 8,7 2,0 9 5 26 14 ESE 0 0,0
16.04.2019 00:00:00 10,1 1,7 15 8 26 14 ESE 0 0,0
15.04.2019 23:00:00 9,7 1,3 15 8 24 13 ESE 0 0,0
15.04.2019 22:00:00 8,2 -0,1 11 6 18 10 ESE 0 0,0
15.04.2019 21:00:00 11,6 -0,3 13 7 29 16 ESE 6 0,0
15.04.2019 20:00:00 14,0 -1,2 18 10 35 19 ESE 48 -
15.04.2019 19:00:00 15,5 -1,6 21 11 34 18 ESE 60 0,0
15.04.2019 18:00:00 16,4 -1,2 18 10 37 20 SE 60 0,0
15.04.2019 17:00:00 17,2 1,6 18 10 42 23 SE 60 0,0
15.04.2019 16:00:00 15,8 1,5 21 11 39 21 E 60 0,0
15.04.2019 15:00:00 15,5 1,9 18 10 41 22 E 60 0,0
15.04.2019 14:00:00 14,3 1,5 18 10 35 19 E 60 -
15.04.2019 13:00:00 13,0 0,7 18 10 39 21 E 60 0,0
15.04.2019 12:00:00 12,4 1,1 22 12 35 19 E 60 0,0
15.04.2019 11:00:00 9,3 2,2 9 5 16 9 N 60 0,0
15.04.2019 10:00:00 7,0 1,1 8 4 18 10 ENE 60 0,0
15.04.2019 09:00:00 2,9 1,4 8 4 13 7 ENE 60 0,0
15.04.2019 08:00:00 -0,6 -0,6 4 2 11 6 ENE 42 -
15.04.2019 07:00:00 -2,4 -2,4 2 1 9 5 ENE 0 0,0
15.04.2019 06:00:00 -3,0 -3,4 0 0 5 3 N 0 0,0
15.04.2019 05:00:00 -2,5 -3,2 0 0 4 2 N 0 0,0
15.04.2019 04:00:00 -2,8 -4,4 2 1 4 2 E 0 0,0
15.04.2019 03:00:00 -1,8 -3,7 0 0 4 2 N 0 0,0
15.04.2019 02:00:00 -0,9 -3,4 4 2 8 4 ENE 0 -
15.04.2019 01:00:00 0,3 -2,9 5 3 9 5 ENE 0 0,0
15.04.2019 00:00:00 0,8 -3,5 2 1 11 6 ENE 0 0,0
14.04.2019 23:00:00 2,5 -3,0 5 3 13 7 ENE 0 0,0
14.04.2019 22:00:00 2,8 -4,0 4 2 8 4 ENE 0 0,0
14.04.2019 21:00:00 4,6 -4,9 8 4 21 11 NE 6 0,0
14.04.2019 20:00:00 6,9 -5,8 15 8 28 15 NE 60 -
14.04.2019 19:00:00 7,9 -6,6 9 5 26 14 NE 48 0,0
14.04.2019 18:00:00 8,6 -6,8 13 7 26 14 NNE 48 0,0
14.04.2019 17:00:00 8,8 -6,2 16 9 31 17 NNE 42 0,0
14.04.2019 16:00:00 8,3 -6,3 16 9 29 16 NNE 12 0,0
14.04.2019 15:00:00 8,5 -5,4 15 8 29 16 N 42 0,0
14.04.2019 14:00:00 7,3 -5,1 16 9 28 15 NNE 36 -

tt = Température de l'air
td = dewpoint
ff = Vitesse du vent
fx = gusts
dd = Direction du vent
sd = Ensoleillement
rr = Quantités de précipitations

stations d'obs. à proximité